• Join FlightAware (Why Join?)
  • Login
  • US Flag 
05:42PM EDT


 

Airport Tracker/Info


-or-


 

Live Flight TrackerFlight Track Log ✈ N818BA ✈ 29-Jul-2013 ✈ KHPN - KPTK

Flight Track Log - Related Links

Times and Time Zones

All times are in EDT time to prevent confusion due to time zone crossing. See the N818BA flight status page for this flight to view local times or setup timezone preferences in your user account.

Time Position Orientation Groundspeed Altitude Reporting Facility
EDT Latitude Longitude Course Direction KTS MPH feet Rate Location/Type
04:08PM 41.1058 -73.8139 294° West 244 281 4,200  Level New York Center
04:09PM 41.1333 -73.9333 287° West 264 304 9,300 3,420 Climbing New York TRACON
04:10PM 41.1489 -73.9950 289° West 282 325 11,200 2,220 Climbing New York Center
04:11PM 41.2006 -74.0828 308° West 321 369 13,300 2,640 Climbing New York Center
04:12PM 41.2786 -74.1889 314° West 353 406 16,400 1,860 Climbing New York Center
04:13PM 41.3469 -74.2808 315° West 379 436 17,000 1,020 Climbing New York Center
04:14PM 41.4019 -74.3556 294° West  Level FlightAware Approximate
04:14PM 41.4108 -74.3725 313° West 379 436 18,500  Level New York Center
04:15PM 41.4733 -74.5006 303° West 379 436 21,400 2,640 Climbing New York Center
04:16PM 41.5233 -74.6281 298° West 379 436 23,800 2,280 Climbing New York Center
04:17PM 41.5797 -74.7561 301° West 394 453 26,000 2,100 Climbing New York Center
04:18PM 41.6353 -74.8897 299° West 405 466 28,100 2,520 Climbing New York Center
04:19PM 41.6931 -75.0239 300° West 415 478 31,100 2,640 Climbing New York Center
04:20PM 41.7489 -75.1525 300° West 415 478 33,500 2,220 Climbing New York Center
04:21PM 41.8061 -75.2872 300° West 410 472 35,600 1,860 Climbing New York Center
04:22PM 41.8614 -75.4217 299° West 410 472 37,300 1,680 Climbing New York Center
04:23PM 41.9167 -75.5539 299° West 410 472 39,000 1,260 Climbing New York Center
04:24PM 41.9736 -75.6864 300° West 410 472 39,900 480 Climbing New York Center
04:25PM 42.0322 -75.8275 299° West 417 480 40,000  Climbing New York Center
04:27PM 42.1167 -76.0667 296° West 450 518 40,000  Level Toronto Center
04:28PM 42.1697 -76.1814 302° West 439 505 40,000  Level Cleveland Center
04:29PM 42.2192 -76.3350 294° West 439 505 40,000  Level Cleveland Center
04:30PM 42.2661 -76.4778 294° West 432 497 40,000  Level Cleveland Center
04:31PM 42.3131 -76.6264 293° West 432 497 40,000  Level Cleveland Center
04:32PM 42.3597 -76.7753 293° West 432 497 40,000  Level Cleveland Center
04:33PM 42.4083 -76.9217 294° West 432 497 40,000  Level Cleveland Center
04:34PM 42.4525 -77.0708 292° West 432 497 40,000  Level Cleveland Center
04:35PM 42.5008 -77.2203 294° West 432 497 40,000  Level Cleveland Center
04:36PM 42.5467 -77.3703 293° West 432 497 40,000  Level Cleveland Center
04:37PM 42.5969 -77.5256 294° West 437 503 40,000  Level Cleveland Center
04:38PM 42.6406 -77.6789 291° West 442 509 40,000  Level Cleveland Center
04:39PM 42.6947 -77.8486 294° West 442 509 40,000  Level Cleveland Center
04:40PM 42.7378 -77.9967 292° West 442 509 40,000  Level Cleveland Center
04:41PM 42.7825 -78.1447 292° West 442 509 40,000  Level Cleveland Center
04:42PM 42.8275 -78.2986 292° West 437 503 40,000  Level Cleveland Center
04:43PM 42.8719 -78.4500 292° West 437 503 40,000  Level Cleveland Center
04:44PM 42.9183 -78.6017 293° West 432 497 40,000 -600 Level Cleveland Center
04:45PM 42.9378 -78.7625 279° West 432 497 38,900 -1,380 Descending Cleveland Center
04:46PM 42.9464 -78.9211 274° West 427 491 37,300 -1,620 Descending Cleveland Center
04:47PM 42.9528 -79.0769 273° West 427 491 35,700 -1,620 Descending Cleveland Center
04:48PM 42.9500 -79.2667 269° West 410 472 33,600 -1,680 Descending Toronto Center
04:49PM 42.9500 -79.4333 270° West 410 472 31,900 -1,620 Descending Toronto Center
04:50PM 42.9500 -79.5667 270° West 410 472 30,400 -960 Descending Toronto Center
04:51PM 42.9333 -79.7167 261° West 410 472 30,000 -240 Descending Toronto Center
04:52PM 42.9333 -79.8833 270° West 410 472 30,000  Level Toronto Center
04:53PM 42.9167 -80.0500 262° West 410 472 30,000  Level Toronto Center
04:54PM 42.9167 -80.2000 270° West 410 472 30,000 -120 Level Toronto Center
04:55PM 42.9167 -80.3333 270° West 410 472 29,800 -900 Descending Toronto Center
04:56PM 42.9000 -80.5000 262° West 410 472 28,300 -1,560 Descending Toronto Center
04:57PM 42.9000 -80.6500 270° West 400 460 26,700 -1,500 Descending Toronto Center
04:58PM 42.8833 -80.8167 262° West 400 460 25,300 -1,500 Descending Toronto Center
04:59PM 42.8667 -80.9500 260° West 390 449 23,700 -1,680 Descending Toronto Center
05:00PM 42.8667 -81.1167 270° West 390 449 22,000 -1,740 Descending Toronto Center
05:01PM 42.8500 -81.2500 260° West 380 437 20,300 -1,560 Descending Toronto Center
05:02PM 42.8500 -81.3833 270° West 360 414 18,900 -1,500 Descending Toronto Center
05:03PM 42.8500 -81.5167 270° West 360 414 17,400 -1,560 Descending Toronto Center
05:04PM 42.8333 -81.6500 260° West 350 403 15,800 -1,560 Descending Toronto Center
05:05PM 42.8333 -81.7667 270° West 350 403 14,300 -1,560 Descending Toronto Center
05:06PM 42.8333 -81.9000 270° West 340 391 12,700 -1,200 Descending Toronto Center
05:07PM 42.8000 -82.0500 253° West 340 391 12,000 -1,020 Descending Toronto Center
05:08PM 42.7667 -82.1500 246° West 340 391 10,700 -1,020 Descending Toronto Center
05:09PM 42.7667 -82.2833 270° West 330 380 10,000 -360 Descending Toronto Center
05:10PM 42.7500 -82.4000 259° West 320 368 10,000  Level Toronto Center
05:11PM 42.7542 -82.5286 273° West 307 353 10,100  Climbing Cleveland Center
05:12PM 42.7400 -82.6383 260° West 323 372 10,000 -120 Descending Cleveland Center
05:12PM 42.7347 -82.6975 263° West 325 374 10,000 -720 Level Cleveland Center
05:13PM 42.7200 -82.8072 260° West 318 366 8,900 -1,440 Descending Cleveland Center
05:14PM 42.7014 -82.9111 256° West 299 344 7,200 -1,800 Descending Cleveland Center
05:15PM 42.6889 -83.0153 261° West 289 333 5,300 -1,980 Descending Cleveland Center
05:16PM 42.6833 -83.0772 263° West 273 314 4,300 -1,200 Descending Cleveland Center
05:16PM 42.6761 -83.1164 256° West 283 326 4,100 -900 Descending Cleveland Center
05:17PM 42.6731 -83.1672 265° West 233 268 3,400 -900 Descending Cleveland Center
05:18PM 42.6689 -83.2544 266° West 186 214 2,700 -420 Descending Cleveland Center
05:19PM 42.6675 -83.3081 268° West 160 184 2,600 -480 Descending Cleveland Center
05:20PM 42.6642 -83.3617 265° West 132 152 1,800 -840 Descending Cleveland Center
05:22PM 42.6500 -83.4167 251° West  Level FlightAware Approximate
05:29PM 42.6656 -83.4205 251° West  Level Estimated
05:30PM 42.6656 -83.4205 251° West  Level Estimated